Time;durP1;ratioP1;P1;durP2;ratioP2;P2;SDS_P1;SDS_P2;PMS_P1;PMS_P2;Temp;Humidity;BMP_temperature;BMP_pressure;BME280_temperature;BME280_humidity;BME280_pressure;Samples;Min_cycle;Max_cycle;Signal;HPM_P1;HPM_P2
2021/01/31 00:01:43;;;;;;;4.18;3.05;;;;;;;;;;6398352;22;20165;-47
2021/01/31 00:04:14;;;;;;;4.00;2.50;;;;;;;;;;6398230;22;20201;-50
2021/01/31 00:06:41;;;;;;;4.18;3.22;;;;;;;;;;6398681;22;20170;-49
2021/01/31 00:09:08;;;;;;;4.95;3.45;;;;;;;;;;6398207;22;20179;-51
2021/01/31 00:11:35;;;;;;;4.32;2.85;;;;;;;;;;6398723;22;20201;-51
2021/01/31 00:14:09;;;;;;;4.43;2.75;;;;;;;;;;6397988;22;20197;-52
2021/01/31 00:16:36;;;;;;;6.25;3.50;;;;;;;;;;6398606;22;20176;-56
2021/01/31 00:19:03;;;;;;;9.57;2.92;;;;;;;;;;6398393;22;20177;-54
2021/01/31 00:21:38;;;;;;;5.75;3.40;;;;;;;;;;6398866;22;20181;-50
2021/01/31 00:24:05;;;;;;;5.28;2.65;;;;;;;;;;6398216;22;20200;-59
2021/01/31 00:26:32;;;;;;;3.85;2.65;;;;;;;;;;6397775;22;20186;-44
2021/01/31 00:29:30;;;;;;;4.63;2.83;;;;;;;;;;6398335;22;20221;-55
2021/01/31 00:31:57;;;;;;;4.88;2.80;;;;;;;;;;6398246;22;20209;-56
2021/01/31 00:34:24;;;;;;;4.88;3.05;;;;;;;;;;6398595;22;20189;-51
2021/01/31 00:36:56;;;;;;;7.00;3.85;;;;;;;;;;6398313;22;20229;-53
2021/01/31 00:39:23;;;;;;;4.82;3.47;;;;;;;;;;6397500;22;20206;-51
2021/01/31 00:41:54;;;;;;;5.60;3.22;;;;;;;;;;6398115;22;20177;-54
2021/01/31 00:44:23;;;;;;;5.10;3.15;;;;;;;;;;6397688;22;20181;-54
2021/01/31 00:46:50;;;;;;;4.35;2.83;;;;;;;;;;6398349;22;20188;-48
2021/01/31 00:49:24;;;;;;;5.85;3.13;;;;;;;;;;6398320;22;20166;-53
2021/01/31 00:51:52;;;;;;;5.30;3.60;;;;;;;;;;6397948;22;20177;-55
2021/01/31 00:54:27;;;;;;;4.50;3.15;;;;;;;;;;6398246;22;20204;-51
2021/01/31 00:57:10;;;;;;;5.88;3.35;;;;;;;;;;6397654;22;20229;-52
2021/01/31 00:59:37;;;;;;;7.78;3.25;;;;;;;;;;6397348;22;20374;-51
2021/01/31 01:02:16;;;;;;;5.68;3.58;;;;;;;;;;6398733;22;20188;-57
2021/01/31 01:04:50;;;;;;;6.30;3.58;;;;;;;;;;6397513;22;20170;-53
2021/01/31 01:07:17;;;;;;;5.55;3.30;;;;;;;;;;6396705;22;20201;-56
2021/01/31 01:09:47;;;;;;;5.38;3.25;;;;;;;;;;6398374;22;20165;-56
2021/01/31 01:12:27;;;;;;;7.88;4.00;;;;;;;;;;6397777;22;20189;-53
2021/01/31 01:14:53;;;;;;;5.35;3.72;;;;;;;;;;6397645;22;20165;-60
2021/01/31 01:17:21;;;;;;;4.32;2.97;;;;;;;;;;6397358;22;20157;-55
2021/01/31 01:20:07;;;;;;;5.78;3.58;;;;;;;;;;6397836;22;20161;-46
2021/01/31 01:22:34;;;;;;;5.00;3.75;;;;;;;;;;6397402;22;20208;-47
2021/01/31 01:25:02;;;;;;;5.63;3.05;;;;;;;;;;6397044;22;20191;-50
2021/01/31 01:27:46;;;;;;;4.32;2.65;;;;;;;;;;6397750;22;20201;-46
2021/01/31 01:30:15;;;;;;;4.18;2.92;;;;;;;;;;6396343;22;20191;-49
2021/01/31 01:32:42;;;;;;;5.50;3.40;;;;;;;;;;6397388;22;20193;-54
2021/01/31 01:35:26;;;;;;;5.53;3.78;;;;;;;;;;6397961;22;20177;-48
2021/01/31 01:37:53;;;;;;;8.00;3.45;;;;;;;;;;6396718;22;20587;-53
2021/01/31 01:40:23;;;;;;;5.25;3.08;;;;;;;;;;6397408;22;20245;-50
2021/01/31 01:42:51;;;;;;;5.50;3.38;;;;;;;;;;6396736;22;20176;-51
2021/01/31 01:45:19;;;;;;;6.35;3.58;;;;;;;;;;6396894;22;20180;-50
2021/01/31 01:47:49;;;;;;;7.38;4.30;;;;;;;;;;6396708;22;20180;-54
2021/01/31 01:50:27;;;;;;;6.15;4.35;;;;;;;;;;6396949;22;20206;-52
2021/01/31 01:52:56;;;;;;;7.50;4.32;;;;;;;;;;6396814;22;20204;-46
2021/01/31 01:55:29;;;;;;;5.38;4.05;;;;;;;;;;6395350;22;20319;-46
2021/01/31 01:58:00;;;;;;;7.03;3.90;;;;;;;;;;6398043;22;20165;-50
2021/01/31 02:00:27;;;;;;;8.65;4.90;;;;;;;;;;6397826;22;20271;-57
2021/01/31 02:03:03;;;;;;;7.07;4.22;;;;;;;;;;6397482;22;20191;-52
2021/01/31 02:05:31;;;;;;;8.35;3.80;;;;;;;;;;6396950;22;20201;-53
2021/01/31 02:07:58;;;;;;;7.45;4.30;;;;;;;;;;6397853;22;20179;-52
2021/01/31 02:10:28;;;;;;;5.97;4.07;;;;;;;;;;6398035;22;20212;-55
2021/01/31 02:12:57;;;;;;;6.45;4.22;;;;;;;;;;6397202;22;20218;-51
2021/01/31 02:15:24;;;;;;;6.75;4.40;;;;;;;;;;6397981;22;20160;-46
2021/01/31 02:18:01;;;;;;;6.28;4.38;;;;;;;;;;6397443;22;20216;-48
2021/01/31 02:20:49;;;;;;;5.60;3.50;;;;;;;;;;6397334;22;20197;-59
2021/01/31 02:23:35;;;;;;;6.88;4.60;;;;;;;;;;6397449;22;20185;-48
2021/01/31 02:26:09;;;;;;;6.80;3.95;;;;;;;;;;6397177;22;20201;-52
2021/01/31 02:28:48;;;;;;;5.88;3.65;;;;;;;;;;6397148;22;20190;-50
2021/01/31 02:31:28;;;;;;;5.57;3.85;;;;;;;;;;6397109;22;20172;-51
2021/01/31 02:34:00;;;;;;;7.35;5.25;;;;;;;;;;6396728;22;20216;-50
2021/01/31 02:39:36;;;;;;;9.38;4.80;;;;;;;;;;6396850;22;20171;-51
2021/01/31 02:42:07;;;;;;;7.22;5.00;;;;;;;;;;6396992;22;20187;-49
2021/01/31 02:44:43;;;;;;;9.57;4.85;;;;;;;;;;6396756;22;20160;-54
2021/01/31 02:47:14;;;;;;;6.97;4.90;;;;;;;;;;6395653;22;20271;-53
2021/01/31 02:49:44;;;;;;;7.57;5.13;;;;;;;;;;6397249;22;20165;-51
2021/01/31 02:52:14;;;;;;;11.35;4.53;;;;;;;;;;6396941;22;20183;-56
2021/01/31 02:54:45;;;;;;;7.72;4.60;;;;;;;;;;6398361;22;20187;-51
2021/01/31 02:57:15;;;;;;;8.73;5.38;;;;;;;;;;6399619;22;20164;-50
2021/01/31 02:59:57;;;;;;;10.90;5.38;;;;;;;;;;6399445;22;20175;-50
2021/01/31 03:02:27;;;;;;;8.93;5.53;;;;;;;;;;6399270;22;20164;-50
2021/01/31 03:04:57;;;;;;;7.43;5.25;;;;;;;;;;6399632;22;20188;-55
2021/01/31 03:10:32;;;;;;;9.93;5.95;;;;;;;;;;6398757;22;20198;-52
2021/01/31 03:13:00;;;;;;;10.20;5.60;;;;;;;;;;6399303;22;20192;-45
2021/01/31 03:15:30;;;;;;;9.10;5.55;;;;;;;;;;6398775;22;20176;-53
2021/01/31 03:17:59;;;;;;;9.30;5.90;;;;;;;;;;6399545;22;20165;-50
2021/01/31 03:21:00;;;;;;;9.52;5.32;;;;;;;;;;6398921;22;20145;-46
2021/01/31 03:23:34;;;;;;;10.07;6.05;;;;;;;;;;6398728;22;20179;-54
2021/01/31 03:26:04;;;;;;;10.25;6.45;;;;;;;;;;6398972;22;20216;-49
2021/01/31 03:28:37;;;;;;;6.35;5.43;;;;;;;;;;6399420;22;20177;-52
2021/01/31 03:31:07;;;;;;;9.85;6.07;;;;;;;;;;6398836;22;20183;-43
2021/01/31 03:33:37;;;;;;;10.60;5.20;;;;;;;;;;6398546;22;20200;-52
2021/01/31 03:36:28;;;;;;;13.38;5.25;;;;;;;;;;6399495;22;20185;-47
2021/01/31 03:38:57;;;;;;;10.65;6.50;;;;;;;;;;6398507;22;20176;-44
2021/01/31 03:41:26;;;;;;;11.13;7.10;;;;;;;;;;6399192;22;20171;-55
2021/01/31 03:44:13;;;;;;;11.25;5.90;;;;;;;;;;6398978;22;20167;-49
2021/01/31 03:46:41;;;;;;;10.25;5.95;;;;;;;;;;6399070;22;20586;-52
2021/01/31 03:49:10;;;;;;;11.18;6.40;;;;;;;;;;6399267;22;20182;-55
2021/01/31 03:51:52;;;;;;;12.25;6.75;;;;;;;;;;6398854;22;20172;-49
2021/01/31 03:54:20;;;;;;;9.52;5.93;;;;;;;;;;6398152;22;20207;-48
2021/01/31 03:56:52;;;;;;;8.57;5.75;;;;;;;;;;6398831;22;20235;-52
2021/01/31 03:59:21;;;;;;;10.82;6.63;;;;;;;;;;6399111;22;20229;-52
2021/01/31 04:01:49;;;;;;;10.55;6.50;;;;;;;;;;6398590;22;20176;-52
2021/01/31 04:04:19;;;;;;;10.05;5.50;;;;;;;;;;6398270;22;20604;-56
2021/01/31 04:07:08;;;;;;;11.85;7.55;;;;;;;;;;6398809;22;20350;-53
2021/01/31 04:09:40;;;;;;;12.25;8.25;;;;;;;;;;6399322;22;20169;-52
2021/01/31 04:12:08;;;;;;;15.38;7.88;;;;;;;;;;6399289;22;20202;-51
2021/01/31 04:14:39;;;;;;;11.18;6.95;;;;;;;;;;6398836;22;20200;-58
2021/01/31 04:17:10;;;;;;;10.30;6.93;;;;;;;;;;6398955;22;20224;-50
2021/01/31 04:19:39;;;;;;;15.27;7.68;;;;;;;;;;6399349;22;20164;-58
2021/01/31 04:22:10;;;;;;;11.25;7.13;;;;;;;;;;6399438;22;20199;-54
2021/01/31 04:24:38;;;;;;;16.73;7.70;;;;;;;;;;6399527;22;20164;-55
2021/01/31 04:27:22;;;;;;;12.07;7.32;;;;;;;;;;6399562;22;20182;-54
2021/01/31 04:29:49;;;;;;;13.15;7.90;;;;;;;;;;6399056;22;20190;-56
2021/01/31 04:32:21;;;;;;;11.57;7.22;;;;;;;;;;6399546;22;20168;-55
2021/01/31 04:37:52;;;;;;;12.68;7.65;;;;;;;;;;6399207;22;20191;-53
2021/01/31 04:40:20;;;;;;;12.43;7.38;;;;;;;;;;6399094;22;20149;-52
2021/01/31 04:42:49;;;;;;;10.95;7.15;;;;;;;;;;6399248;22;20180;-49
2021/01/31 04:45:17;;;;;;;11.93;7.47;;;;;;;;;;6399053;22;20181;-51
2021/01/31 04:47:46;;;;;;;13.07;7.68;;;;;;;;;;6398823;22;20207;-51
2021/01/31 04:50:38;;;;;;;13.68;7.50;;;;;;;;;;6398574;22;20176;-54
2021/01/31 04:53:12;;;;;;;11.93;7.45;;;;;;;;;;6398525;22;20188;-55
2021/01/31 04:56:00;;;;;;;10.68;6.90;;;;;;;;;;6399479;22;20225;-57
2021/01/31 05:01:37;;;;;;;10.65;6.70;;;;;;;;;;6399194;22;20187;-52
2021/01/31 05:04:10;;;;;;;10.57;6.50;;;;;;;;;;6399060;22;20183;-54
2021/01/31 05:06:49;;;;;;;15.50;8.88;;;;;;;;;;6399161;22;20164;-55
2021/01/31 05:09:21;;;;;;;11.00;6.93;;;;;;;;;;6398731;22;20203;-53
2021/01/31 05:11:54;;;;;;;10.43;7.45;;;;;;;;;;6398977;22;20160;-50
2021/01/31 05:14:30;;;;;;;17.17;8.23;;;;;;;;;;6398954;22;20196;-51
2021/01/31 05:17:18;;;;;;;15.38;8.00;;;;;;;;;;6398815;22;20167;-54
2021/01/31 05:19:47;;;;;;;16.02;8.43;;;;;;;;;;6399028;22;20175;-54
2021/01/31 05:22:17;;;;;;;17.60;10.20;;;;;;;;;;6398732;22;20176;-57
2021/01/31 05:24:46;;;;;;;12.07;8.48;;;;;;;;;;6399105;22;20164;-55
2021/01/31 05:27:17;;;;;;;12.38;8.00;;;;;;;;;;6398826;22;20164;-51
2021/01/31 05:30:09;;;;;;;13.52;8.27;;;;;;;;;;6399187;22;20148;-51
2021/01/31 05:32:51;;;;;;;11.60;7.75;;;;;;;;;;6398389;22;20172;-49
2021/01/31 05:35:23;;;;;;;13.45;7.80;;;;;;;;;;6397754;22;20223;-48
2021/01/31 05:37:50;;;;;;;13.15;8.23;;;;;;;;;;6398420;22;20182;-48
2021/01/31 05:40:27;;;;;;;13.55;7.90;;;;;;;;;;6397716;22;20176;-52
2021/01/31 05:43:13;;;;;;;11.65;7.70;;;;;;;;;;6397897;22;20164;-50
2021/01/31 05:45:42;;;;;;;12.32;7.45;;;;;;;;;;6397800;22;20285;-57
2021/01/31 05:48:35;;;;;;;10.25;7.70;;;;;;;;;;6397991;22;20174;-46
2021/01/31 05:51:13;;;;;;;12.80;7.50;;;;;;;;;;6398065;22;20164;-52
2021/01/31 05:53:41;;;;;;;11.05;7.55;;;;;;;;;;6397262;22;20207;-58
2021/01/31 05:56:16;;;;;;;10.65;7.00;;;;;;;;;;6397772;22;20165;-49
2021/01/31 05:58:43;;;;;;;11.30;7.47;;;;;;;;;;6397742;22;20143;-51
2021/01/31 06:01:27;;;;;;;14.15;8.60;;;;;;;;;;6397974;22;20140;-51
2021/01/31 06:04:10;;;;;;;13.27;7.30;;;;;;;;;;6398023;22;20487;-52
2021/01/31 06:06:54;;;;;;;11.70;8.32;;;;;;;;;;6397952;22;20179;-56
2021/01/31 06:09:22;;;;;;;14.18;7.20;;;;;;;;;;6398081;22;20165;-51
2021/01/31 06:11:49;;;;;;;15.18;8.60;;;;;;;;;;6398205;22;20180;-52
2021/01/31 06:14:38;;;;;;;14.15;7.35;;;;;;;;;;6398429;22;20218;-52
2021/01/31 06:17:07;;;;;;;13.55;8.23;;;;;;;;;;6397641;22;20184;-49
2021/01/31 06:19:36;;;;;;;13.32;8.52;;;;;;;;;;6370808;22;20163;-45
2021/01/31 06:25:08;;;;;;;12.43;7.25;;;;;;;;;;6397191;22;20217;-53
2021/01/31 06:27:36;;;;;;;11.32;7.18;;;;;;;;;;6397452;22;20164;-45
2021/01/31 06:30:29;;;;;;;9.13;6.60;;;;;;;;;;6397101;22;20211;-48
2021/01/31 06:32:56;;;;;;;12.68;7.20;;;;;;;;;;6397014;22;20180;-51
2021/01/31 06:35:24;;;;;;;14.80;7.50;;;;;;;;;;6397247;22;20166;-49
2021/01/31 06:38:10;;;;;;;12.05;7.90;;;;;;;;;;6397497;22;20168;-51
2021/01/31 06:40:41;;;;;;;11.68;7.60;;;;;;;;;;6397120;22;20179;-54
2021/01/31 06:43:14;;;;;;;13.77;8.00;;;;;;;;;;6397016;22;20180;-48
2021/01/31 06:45:49;;;;;;;17.02;6.53;;;;;;;;;;6397430;22;20197;-56
2021/01/31 06:48:27;;;;;;;12.05;7.63;;;;;;;;;;6396789;22;20203;-54
2021/01/31 06:51:06;;;;;;;11.10;7.07;;;;;;;;;;6396681;22;20164;-51
2021/01/31 06:53:47;;;;;;;15.52;8.65;;;;;;;;;;6397257;22;20183;-52
2021/01/31 06:56:45;;;;;;;14.07;8.00;;;;;;;;;;6396871;22;20201;-47
2021/01/31 06:59:30;;;;;;;13.15;8.57;;;;;;;;;;6367469;22;20184;-54
2021/01/31 07:02:02;;;;;;;17.52;8.32;;;;;;;;;;6397079;22;20166;-50
2021/01/31 07:04:59;;;;;;;14.98;8.98;;;;;;;;;;6397447;22;20205;-55
2021/01/31 07:07:45;;;;;;;15.13;8.82;;;;;;;;;;6397034;22;20179;-56
2021/01/31 07:10:36;;;;;;;12.23;6.80;;;;;;;;;;6397671;22;20148;-50
2021/01/31 07:13:09;;;;;;;13.32;7.47;;;;;;;;;;6397150;22;20211;-56
2021/01/31 07:16:01;;;;;;;15.70;7.75;;;;;;;;;;6396911;22;20224;-53
2021/01/31 07:18:32;;;;;;;13.05;8.35;;;;;;;;;;6397312;22;20163;-58
2021/01/31 07:20:59;;;;;;;14.95;6.85;;;;;;;;;;6397065;22;20195;-55
2021/01/31 07:23:32;;;;;;;12.32;8.25;;;;;;;;;;6397194;22;20159;-56
2021/01/31 07:26:00;;;;;;;17.50;8.55;;;;;;;;;;6397329;22;20176;-57
2021/01/31 07:28:31;;;;;;;15.50;8.98;;;;;;;;;;6397676;22;20188;-50
2021/01/31 07:31:02;;;;;;;15.18;9.38;;;;;;;;;;6397608;22;20174;-49
2021/01/31 07:33:32;;;;;;;13.43;8.60;;;;;;;;;;6396928;22;20191;-53
2021/01/31 07:36:06;;;;;;;9.88;7.35;;;;;;;;;;6397764;22;20160;-52
2021/01/31 07:41:36;;;;;;;11.57;8.13;;;;;;;;;;6397989;22;20245;-51
2021/01/31 07:44:06;;;;;;;11.63;7.68;;;;;;;;;;6399646;22;20197;-47
2021/01/31 07:46:34;;;;;;;12.88;8.05;;;;;;;;;;6399588;22;20202;-45
2021/01/31 07:49:01;;;;;;;11.30;7.55;;;;;;;;;;6399114;22;20168;-58
2021/01/31 07:51:55;;;;;;;16.67;8.40;;;;;;;;;;6399186;22;20160;-54
2021/01/31 07:54:24;;;;;;;12.40;7.57;;;;;;;;;;6398455;22;20214;-54
2021/01/31 07:57:24;;;;;;;13.27;8.25;;;;;;;;;;6398389;22;20179;-53
2021/01/31 07:59:51;;;;;;;16.67;8.00;;;;;;;;;;6398847;22;20171;-51
2021/01/31 08:02:32;;;;;;;12.30;7.70;;;;;;;;;;6398155;22;20201;-59
2021/01/31 08:04:59;;;;;;;10.73;7.20;;;;;;;;;;6398464;22;20180;-52
2021/01/31 08:07:45;;;;;;;16.20;7.68;;;;;;;;;;6398747;22;20190;-54
2021/01/31 08:10:12;;;;;;;14.25;8.43;;;;;;;;;;6398772;22;20207;-56
2021/01/31 08:12:58;;;;;;;12.30;8.18;;;;;;;;;;6398738;22;20167;-50
2021/01/31 08:18:30;;;;;;;15.07;8.82;;;;;;;;;;6398237;22;20241;-50
2021/01/31 08:20:56;;;;;;;11.80;7.82;;;;;;;;;;6371673;22;20224;-54
2021/01/31 08:23:56;;;;;;;12.73;8.60;;;;;;;;;;6399119;22;20152;-50
2021/01/31 08:26:36;;;;;;;16.00;9.27;;;;;;;;;;6398828;22;20175;-49
2021/01/31 08:29:03;;;;;;;12.93;7.45;;;;;;;;;;6399313;22;20149;-47
2021/01/31 08:34:48;;;;;;;10.68;6.80;;;;;;;;;;6398412;22;20191;-50
2021/01/31 08:37:24;;;;;;;8.65;6.63;;;;;;;;;;6397826;22;20172;-50
2021/01/31 08:39:51;;;;;;;12.23;7.45;;;;;;;;;;6398754;22;20164;-53
2021/01/31 08:42:18;;;;;;;13.13;8.18;;;;;;;;;;6398366;22;20165;-55
2021/01/31 08:44:53;;;;;;;11.70;8.27;;;;;;;;;;6398398;22;20195;-53
2021/01/31 08:47:20;;;;;;;12.73;7.43;;;;;;;;;;6399016;22;20203;-49
2021/01/31 08:49:56;;;;;;;15.95;9.02;;;;;;;;;;6398295;22;20167;-56
2021/01/31 08:52:24;;;;;;;14.48;8.35;;;;;;;;;;6398511;22;20587;-45
2021/01/31 08:57:58;;;;;;;10.35;7.70;;;;;;;;;;6398578;22;20257;-51
2021/01/31 09:00:26;;;;;;;11.60;7.70;;;;;;;;;;6399186;22;20176;-52
2021/01/31 09:03:01;;;;;;;10.95;6.93;;;;;;;;;;6397949;22;20164;-59
2021/01/31 09:05:29;;;;;;;10.80;7.63;;;;;;;;;;6397877;22;20165;-51
2021/01/31 09:08:05;;;;;;;13.13;7.57;;;;;;;;;;6398682;22;20227;-51
2021/01/31 09:10:38;;;;;;;11.00;7.80;;;;;;;;;;6398286;22;20167;-56
2021/01/31 09:13:25;;;;;;;11.27;7.18;;;;;;;;;;6397662;22;20164;-57
2021/01/31 09:16:10;;;;;;;15.25;6.47;;;;;;;;;;6397583;22;20164;-52
2021/01/31 09:18:37;;;;;;;10.90;7.28;;;;;;;;;;6397383;22;20172;-53
2021/01/31 09:21:19;;;;;;;11.82;7.53;;;;;;;;;;6397615;22;20218;-54
2021/01/31 09:23:48;;;;;;;15.88;8.13;;;;;;;;;;6397011;22;20183;-54
2021/01/31 09:26:14;;;;;;;9.95;6.80;;;;;;;;;;6397321;22;20172;-56
2021/01/31 09:28:47;;;;;;;12.82;7.70;;;;;;;;;;6397071;22;20161;-56
2021/01/31 09:31:16;;;;;;;12.52;6.90;;;;;;;;;;6397044;22;20183;-53
2021/01/31 09:33:43;;;;;;;13.35;8.13;;;;;;;;;;6397591;22;20189;-49
2021/01/31 09:39:16;;;;;;;10.98;7.00;;;;;;;;;;6397802;22;20170;-51
2021/01/31 09:41:43;;;;;;;10.07;6.55;;;;;;;;;;6397321;22;20192;-54
2021/01/31 09:44:29;;;;;;;9.05;5.45;;;;;;;;;;6397627;22;20179;-54
2021/01/31 09:46:57;;;;;;;12.52;7.30;;;;;;;;;;6397106;22;20184;-56
2021/01/31 09:49:25;;;;;;;10.90;5.90;;;;;;;;;;6396857;22;20144;-60
2021/01/31 09:52:12;;;;;;;13.23;7.55;;;;;;;;;;6397016;22;20190;-52
2021/01/31 09:54:42;;;;;;;13.52;7.13;;;;;;;;;;6397391;22;20200;-57
2021/01/31 09:57:18;;;;;;;9.82;6.50;;;;;;;;;;6397674;22;20178;-55
2021/01/31 09:59:49;;;;;;;9.55;7.07;;;;;;;;;;6397044;22;20173;-53
2021/01/31 10:02:19;;;;;;;10.43;6.20;;;;;;;;;;6397191;22;20209;-49
2021/01/31 10:04:49;;;;;;;12.13;7.28;;;;;;;;;;6396913;22;20191;-47
2021/01/31 10:07:26;;;;;;;9.80;6.22;;;;;;;;;;6397194;22;20217;-53
2021/01/31 10:09:53;;;;;;;10.13;6.10;;;;;;;;;;6396696;22;20186;-51
2021/01/31 10:12:27;;;;;;;11.38;7.10;;;;;;;;;;6397473;22;20166;-58
2021/01/31 10:14:57;;;;;;;11.45;7.30;;;;;;;;;;6397061;22;20263;-47
2021/01/31 10:17:34;;;;;;;13.70;6.50;;;;;;;;;;6397220;22;20269;-53
2021/01/31 10:20:28;;;;;;;8.63;5.68;;;;;;;;;;6396461;22;20168;-55
2021/01/31 10:22:55;;;;;;;14.05;6.45;;;;;;;;;;6396934;22;20188;-56
2021/01/31 10:25:24;;;;;;;10.57;6.47;;;;;;;;;;6396454;22;20169;-56
2021/01/31 10:28:11;;;;;;;10.77;6.95;;;;;;;;;;6396439;22;20228;-51
2021/01/31 10:30:40;;;;;;;11.25;6.60;;;;;;;;;;6397326;22;20237;-58
2021/01/31 10:33:08;;;;;;;10.60;6.65;;;;;;;;;;6396548;22;20153;-57
2021/01/31 10:35:37;;;;;;;12.85;6.75;;;;;;;;;;6396830;22;20191;-57
2021/01/31 10:38:27;;;;;;;7.53;5.25;;;;;;;;;;6396633;22;20165;-52
2021/01/31 10:40:58;;;;;;;9.55;5.75;;;;;;;;;;6396768;22;20168;-53
2021/01/31 10:43:28;;;;;;;9.00;6.15;;;;;;;;;;6396623;22;20165;-54
2021/01/31 10:45:55;;;;;;;10.38;5.63;;;;;;;;;;6395944;22;20193;-56
2021/01/31 10:48:41;;;;;;;9.93;6.35;;;;;;;;;;6396595;22;20211;-52
2021/01/31 10:51:09;;;;;;;8.35;5.88;;;;;;;;;;6396493;22;20165;-58
2021/01/31 10:53:36;;;;;;;12.18;5.22;;;;;;;;;;6395704;22;20259;-61
2021/01/31 10:56:06;;;;;;;8.85;5.93;;;;;;;;;;6397055;22;20166;-51
2021/01/31 10:58:33;;;;;;;8.75;5.57;;;;;;;;;;6397071;22;20225;-54
2021/01/31 11:01:00;;;;;;;9.43;5.60;;;;;;;;;;6395944;22;20207;-54
2021/01/31 11:06:31;;;;;;;7.20;4.55;;;;;;;;;;6396763;22;20150;-55
2021/01/31 11:08:57;;;;;;;7.13;4.35;;;;;;;;;;6396089;22;20171;-56
2021/01/31 11:11:47;;;;;;;7.32;4.18;;;;;;;;;;6395849;22;20199;-52
2021/01/31 11:14:21;;;;;;;11.55;5.47;;;;;;;;;;6396171;22;20186;-56
2021/01/31 11:16:54;;;;;;;7.88;5.15;;;;;;;;;;6397490;22;20175;-52
2021/01/31 11:19:23;;;;;;;8.77;5.30;;;;;;;;;;6398382;22;20168;-58
2021/01/31 11:21:50;;;;;;;8.40;5.40;;;;;;;;;;6398982;22;20164;-59
2021/01/31 11:24:16;;;;;;;8.55;5.57;;;;;;;;;;6398662;22;20169;-57
2021/01/31 11:29:48;;;;;;;9.95;5.68;;;;;;;;;;6398429;22;20153;-49
2021/01/31 11:32:15;;;;;;;6.88;5.85;;;;;;;;;;6398703;22;20263;-60
2021/01/31 11:35:03;;;;;;;10.32;6.10;;;;;;;;;;6398294;22;20218;-49
2021/01/31 11:37:30;;;;;;;7.65;4.50;;;;;;;;;;6397544;22;20252;-53
2021/01/31 11:39:57;;;;;;;7.32;5.20;;;;;;;;;;6398201;22;20166;-53
2021/01/31 11:42:30;;;;;;;7.53;4.82;;;;;;;;;;6397688;22;20178;-50
2021/01/31 11:44:58;;;;;;;7.80;5.03;;;;;;;;;;6370108;22;20181;-52
2021/01/31 11:47:24;;;;;;;6.20;4.30;;;;;;;;;;6397317;22;20164;-61
2021/01/31 11:50:03;;;;;;;7.40;4.53;;;;;;;;;;6396686;22;20203;-53
2021/01/31 11:52:30;;;;;;;11.15;5.97;;;;;;;;;;6395947;22;20183;-56
2021/01/31 11:54:57;;;;;;;8.43;5.05;;;;;;;;;;6396559;22;20215;-57
2021/01/31 11:57:32;;;;;;;7.97;5.90;;;;;;;;;;6397312;22;20187;-53
2021/01/31 12:00:00;;;;;;;6.75;5.05;;;;;;;;;;6397714;22;20178;-54
2021/01/31 12:02:27;;;;;;;9.20;4.45;;;;;;;;;;6370524;22;20213;-52
2021/01/31 12:04:55;;;;;;;10.27;4.78;;;;;;;;;;6397797;22;20173;-59
2021/01/31 12:07:22;;;;;;;6.40;5.07;;;;;;;;;;6398011;22;20196;-60
2021/01/31 12:09:49;;;;;;;7.80;4.38;;;;;;;;;;6398100;22;20164;-59
2021/01/31 12:12:28;;;;;;;8.20;4.78;;;;;;;;;;6397725;22;20174;-50
2021/01/31 12:14:55;;;;;;;5.25;4.10;;;;;;;;;;6396745;22;20204;-56
2021/01/31 12:17:23;;;;;;;6.55;4.32;;;;;;;;;;6397626;22;20150;-54
2021/01/31 12:19:57;;;;;;;7.20;4.80;;;;;;;;;;6397252;22;20180;-51
2021/01/31 12:22:25;;;;;;;8.43;5.00;;;;;;;;;;6397372;22;20172;-53
2021/01/31 12:24:51;;;;;;;7.25;4.45;;;;;;;;;;6397887;22;20180;-50
2021/01/31 12:27:38;;;;;;;7.95;5.20;;;;;;;;;;6397424;22;20166;-54
2021/01/31 12:30:06;;;;;;;9.18;5.35;;;;;;;;;;6397146;22;20205;-58
2021/01/31 12:32:35;;;;;;;8.35;5.30;;;;;;;;;;6397609;22;20170;-51
2021/01/31 12:35:21;;;;;;;6.53;4.35;;;;;;;;;;6397937;22;20193;-56
2021/01/31 12:37:48;;;;;;;8.07;4.90;;;;;;;;;;6396978;22;20188;-54
2021/01/31 12:40:16;;;;;;;6.95;5.10;;;;;;;;;;6397623;22;20162;-57
2021/01/31 12:43:11;;;;;;;7.75;4.38;;;;;;;;;;6398023;22;20166;-60
2021/01/31 12:45:38;;;;;;;8.70;5.38;;;;;;;;;;6398336;22;20161;-51
2021/01/31 12:48:06;;;;;;;6.13;3.85;;;;;;;;;;6397626;22;20165;-54
2021/01/31 12:50:40;;;;;;;7.07;4.45;;;;;;;;;;6397673;22;20188;-51
2021/01/31 12:53:07;;;;;;;7.60;4.32;;;;;;;;;;6397058;22;20189;-52
2021/01/31 12:55:42;;;;;;;9.95;3.90;;;;;;;;;;6397117;22;20219;-48
2021/01/31 12:58:24;;;;;;;9.13;4.05;;;;;;;;;;6397212;22;20165;-51
2021/01/31 13:00:51;;;;;;;8.30;4.45;;;;;;;;;;6396809;22;20186;-53
2021/01/31 13:03:20;;;;;;;6.22;4.70;;;;;;;;;;6396283;22;20260;-61
2021/01/31 13:05:54;;;;;;;8.38;4.95;;;;;;;;;;6396828;22;20182;-50
2021/01/31 13:08:21;;;;;;;7.43;4.30;;;;;;;;;;6397156;22;20224;-55
2021/01/31 13:10:49;;;;;;;8.10;4.95;;;;;;;;;;6396758;22;20178;-60
2021/01/31 13:13:22;;;;;;;8.48;4.03;;;;;;;;;;6396558;22;20197;-58
2021/01/31 13:15:49;;;;;;;8.55;5.10;;;;;;;;;;6396670;22;20177;-49
2021/01/31 13:18:15;;;;;;;6.55;4.20;;;;;;;;;;6396545;22;20172;-52
2021/01/31 13:21:11;;;;;;;7.75;5.00;;;;;;;;;;6396135;22;20245;-56
2021/01/31 13:23:39;;;;;;;17.13;4.75;;;;;;;;;;6395912;22;20182;-56
2021/01/31 13:26:06;;;;;;;11.93;7.63;;;;;;;;;;6396548;22;20185;-55
2021/01/31 13:28:33;;;;;;;8.05;4.88;;;;;;;;;;6396199;22;20188;-48
2021/01/31 13:31:00;;;;;;;6.82;4.40;;;;;;;;;;6396032;22;20182;-52
2021/01/31 13:33:38;;;;;;;8.48;5.20;;;;;;;;;;6395663;22;20172;-54
2021/01/31 13:36:06;;;;;;;7.53;4.45;;;;;;;;;;6394632;22;20220;-56
2021/01/31 13:38:35;;;;;;;7.60;5.40;;;;;;;;;;6395780;22;20168;-51
2021/01/31 13:44:07;;;;;;;8.10;5.95;;;;;;;;;;6395435;22;20169;-53
2021/01/31 13:46:35;;;;;;;9.15;5.63;;;;;;;;;;6395980;22;20180;-52
2021/01/31 13:49:11;;;;;;;11.23;6.00;;;;;;;;;;6395173;22;20181;-52
2021/01/31 13:51:40;;;;;;;9.43;5.55;;;;;;;;;;6395667;22;20182;-58
2021/01/31 13:54:07;;;;;;;10.55;5.47;;;;;;;;;;6395751;22;20243;-57
2021/01/31 13:56:49;;;;;;;9.00;6.55;;;;;;;;;;6395563;22;20188;-53
2021/01/31 13:59:24;;;;;;;12.55;6.30;;;;;;;;;;6395525;22;20169;-55
2021/01/31 14:01:51;;;;;;;9.40;5.75;;;;;;;;;;6394443;22;20204;-54
2021/01/31 14:04:30;;;;;;;10.02;6.20;;;;;;;;;;6391720;22;20205;-58
2021/01/31 14:06:59;;;;;;;9.05;5.70;;;;;;;;;;6393402;22;20171;-60
2021/01/31 14:09:28;;;;;;;11.05;6.82;;;;;;;;;;6394977;22;20177;-57
2021/01/31 14:11:55;;;;;;;11.27;6.72;;;;;;;;;;6395334;22;20182;-52
2021/01/31 14:14:23;;;;;;;9.60;6.65;;;;;;;;;;6395230;22;20188;-55
2021/01/31 14:19:54;;;;;;;11.52;7.20;;;;;;;;;;6395780;22;20168;-53
2021/01/31 14:22:21;;;;;;;9.77;6.78;;;;;;;;;;6395893;22;20196;-52
2021/01/31 14:24:58;;;;;;;9.60;5.78;;;;;;;;;;6395985;22;20174;-58
2021/01/31 14:27:26;;;;;;;10.27;7.22;;;;;;;;;;6394678;22;20185;-52
2021/01/31 14:29:53;;;;;;;11.00;7.95;;;;;;;;;;6395091;22;20247;-58
2021/01/31 14:32:34;;;;;;;9.38;6.55;;;;;;;;;;6396113;22;20165;-46
2021/01/31 14:35:01;;;;;;;10.40;6.50;;;;;;;;;;6395220;22;20188;-50
2021/01/31 14:37:35;;;;;;;11.57;6.28;;;;;;;;;;6395385;22;20529;-54
2021/01/31 14:40:04;;;;;;;9.75;5.57;;;;;;;;;;6368494;22;20200;-51
2021/01/31 14:42:32;;;;;;;6.95;4.80;;;;;;;;;;6396043;22;20152;-51
2021/01/31 14:45:18;;;;;;;10.25;6.70;;;;;;;;;;6396234;22;20165;-53
2021/01/31 14:47:46;;;;;;;7.82;4.53;;;;;;;;;;6396171;22;20192;-58
2021/01/31 14:50:14;;;;;;;10.00;5.53;;;;;;;;;;6394103;22;20165;-56
2021/01/31 14:52:41;;;;;;;8.35;5.85;;;;;;;;;;6394784;22;20193;-58
2021/01/31 14:55:09;;;;;;;7.03;5.50;;;;;;;;;;6395396;22;20211;-51
2021/01/31 14:57:36;;;;;;;7.18;5.35;;;;;;;;;;6395522;22;20239;-51
2021/01/31 15:00:05;;;;;;;8.85;5.00;;;;;;;;;;6396449;22;20161;-54
2021/01/31 15:02:35;;;;;;;9.40;4.97;;;;;;;;;;6394938;22;20166;-52
2021/01/31 15:05:12;;;;;;;8.70;5.63;;;;;;;;;;6368269;22;20209;-51
2021/01/31 15:07:38;;;;;;;7.65;4.95;;;;;;;;;;6395947;22;20242;-53
2021/01/31 15:10:08;;;;;;;10.40;5.10;;;;;;;;;;6394263;22;20187;-52
2021/01/31 15:12:34;;;;;;;7.78;4.85;;;;;;;;;;6395721;22;20178;-53
2021/01/31 15:15:02;;;;;;;7.25;4.53;;;;;;;;;;6395132;22;20177;-55
2021/01/31 15:17:29;;;;;;;8.00;5.43;;;;;;;;;;6395440;22;20251;-49
2021/01/31 15:20:00;;;;;;;8.70;4.80;;;;;;;;;;6396024;22;20190;-58
2021/01/31 15:22:32;;;;;;;7.40;5.22;;;;;;;;;;6396211;22;20192;-59
2021/01/31 15:24:59;;;;;;;8.50;5.25;;;;;;;;;;6395265;22;20173;-50
2021/01/31 15:27:36;;;;;;;8.75;5.55;;;;;;;;;;6395366;22;20177;-56
2021/01/31 15:30:04;;;;;;;9.82;6.22;;;;;;;;;;6395790;22;20167;-54
2021/01/31 15:32:33;;;;;;;8.35;5.50;;;;;;;;;;6395335;22;20165;-58
2021/01/31 15:35:24;;;;;;;7.45;4.93;;;;;;;;;;6394806;22;20204;-52
2021/01/31 15:37:52;;;;;;;8.60;5.68;;;;;;;;;;6395065;22;20208;-59
2021/01/31 15:40:19;;;;;;;8.70;5.57;;;;;;;;;;6394486;22;20180;-57
2021/01/31 15:42:47;;;;;;;9.27;5.43;;;;;;;;;;6394788;22;20169;-55
2021/01/31 15:45:15;;;;;;;11.02;5.75;;;;;;;;;;6394945;22;20190;-48
2021/01/31 15:48:14;;;;;;;7.80;5.60;;;;;;;;;;6393939;22;20176;-48
2021/01/31 15:50:41;;;;;;;9.32;5.53;;;;;;;;;;6395851;22;20180;-51
2021/01/31 15:53:09;;;;;;;8.57;5.50;;;;;;;;;;6395322;22;20193;-53